createdAt,value
2023-01-23T00:01:34.669Z,86.60
2023-01-23T00:04:01.969Z,86.60
2023-01-23T00:06:29.309Z,86.70
2023-01-23T00:08:57.327Z,86.70
2023-01-23T00:11:28.354Z,86.70
2023-01-23T00:13:56.407Z,86.70
2023-01-23T00:16:26.505Z,86.70
2023-01-23T00:18:55.400Z,86.70
2023-01-23T00:21:25.743Z,86.70
2023-01-23T00:23:54.252Z,86.70
2023-01-23T00:26:23.085Z,86.70
2023-01-23T00:28:51.101Z,86.80
2023-01-23T00:31:20.179Z,86.80
2023-01-23T00:33:47.610Z,86.80
2023-01-23T00:36:16.647Z,86.80
2023-01-23T00:38:43.769Z,86.80
2023-01-23T00:41:10.876Z,86.80
2023-01-23T00:43:40.484Z,86.80
2023-01-23T00:46:07.434Z,86.80
2023-01-23T00:48:37.446Z,86.80
2023-01-23T00:51:07.482Z,86.80
2023-01-23T00:53:35.909Z,86.80
2023-01-23T00:56:02.952Z,86.70
2023-01-23T00:58:32.762Z,86.80
2023-01-23T01:01:00.111Z,86.70
2023-01-23T01:03:27.313Z,86.80
2023-01-23T01:05:54.397Z,86.80
2023-01-23T01:08:21.285Z,86.80
2023-01-23T01:10:50.562Z,86.80
2023-01-23T01:13:21.279Z,86.80
2023-01-23T01:15:49.065Z,86.70
2023-01-23T01:18:15.977Z,86.80
2023-01-23T01:20:43.768Z,86.80
2023-01-23T01:23:11.846Z,86.80
2023-01-23T01:26:48.952Z,86.80
2023-01-23T01:30:01.153Z,86.80
2023-01-23T01:32:28.769Z,86.90
2023-01-23T01:34:55.708Z,86.90
2023-01-23T01:37:25.961Z,86.90
2023-01-23T01:39:52.876Z,86.90
2023-01-23T01:42:20.010Z,87.00
2023-01-23T01:44:56.688Z,87.00
2023-01-23T01:47:23.994Z,87.00
2023-01-23T01:49:53.028Z,87.00
2023-01-23T01:52:20.824Z,87.00
2023-01-23T01:54:50.714Z,87.00
2023-01-23T01:57:22.064Z,86.90
2023-01-23T01:59:53.245Z,87.00
2023-01-23T02:02:25.526Z,87.00
2023-01-23T02:04:58.531Z,87.00
2023-01-23T02:07:33.591Z,87.00
2023-01-23T02:10:02.948Z,87.00
2023-01-23T02:12:31.883Z,87.10
2023-01-23T02:14:58.765Z,87.10
2023-01-23T02:17:27.722Z,87.10
2023-01-23T02:20:01.328Z,87.10
2023-01-23T02:22:41.045Z,87.10
2023-01-23T02:28:43.724Z,87.10
2023-01-23T02:31:18.575Z,87.20
2023-01-23T02:33:48.984Z,87.10
2023-01-23T02:36:17.330Z,87.20
2023-01-23T02:38:52.938Z,87.10
2023-01-23T02:41:26.056Z,87.10
2023-01-23T02:43:58.450Z,87.20
2023-01-23T02:46:25.707Z,87.10
2023-01-23T02:48:53.294Z,87.10
2023-01-23T02:51:21.970Z,87.20
2023-01-23T02:54:00.214Z,87.20
2023-01-23T02:56:27.015Z,87.20
2023-01-23T02:59:14.365Z,87.10
2023-01-23T03:01:42.080Z,87.10
2023-01-23T03:04:09.069Z,87.20
2023-01-23T03:06:37.569Z,87.10
2023-01-23T03:09:08.016Z,87.20
2023-01-23T03:11:45.741Z,87.10
2023-01-23T03:14:16.815Z,87.20
2023-01-23T03:16:47.126Z,87.20
2023-01-23T03:19:13.996Z,87.30
2023-01-23T03:21:41.331Z,87.30
2023-01-23T03:24:10.714Z,87.30
2023-01-23T03:26:38.860Z,87.30
2023-01-23T03:29:24.779Z,87.30
2023-01-23T03:32:06.440Z,87.30
2023-01-23T03:34:33.470Z,87.30
2023-01-23T03:37:01.392Z,87.30
2023-01-23T03:39:46.648Z,87.30
2023-01-23T03:42:14.251Z,87.30
2023-01-23T03:44:41.268Z,87.30
2023-01-23T03:47:09.891Z,87.30
2023-01-23T03:49:36.727Z,87.30
2023-01-23T03:52:04.307Z,87.30
2023-01-23T03:54:31.785Z,87.30
2023-01-23T03:56:59.043Z,87.30
2023-01-23T03:59:26.661Z,87.30
2023-01-23T04:01:53.575Z,87.30
2023-01-23T04:04:21.847Z,87.40
2023-01-23T04:06:50.098Z,87.40
2023-01-23T04:09:16.949Z,87.40
2023-01-23T04:11:46.937Z,87.40
2023-01-23T04:14:13.806Z,87.50
2023-01-23T04:16:40.748Z,87.50
2023-01-23T04:19:07.802Z,87.50
2023-01-23T04:21:36.007Z,87.50
2023-01-23T04:24:03.297Z,87.40
2023-01-23T04:26:30.173Z,87.40
2023-01-23T04:29:03.408Z,87.40
2023-01-23T04:31:30.458Z,87.50
2023-01-23T04:33:58.055Z,87.50
2023-01-23T04:36:24.833Z,87.50
2023-01-23T04:38:53.106Z,87.50
2023-01-23T04:41:22.110Z,87.50
2023-01-23T04:43:49.160Z,87.50
2023-01-23T04:46:16.788Z,87.50
2023-01-23T04:48:43.678Z,87.50
2023-01-23T04:51:11.038Z,87.60
2023-01-23T04:53:38.287Z,87.60
2023-01-23T04:56:07.071Z,87.50
2023-01-23T04:58:33.886Z,87.50
2023-01-23T05:01:04.962Z,87.50
2023-01-23T05:03:32.959Z,87.60
2023-01-23T05:05:59.856Z,87.50
2023-01-23T05:08:26.822Z,87.50
2023-01-23T05:10:55.469Z,87.50
2023-01-23T05:13:24.018Z,87.60
2023-01-23T05:15:50.870Z,87.50
2023-01-23T05:18:18.095Z,87.60
2023-01-23T05:20:44.890Z,87.60
2023-01-23T05:23:12.063Z,87.60
2023-01-23T05:25:39.003Z,87.60
2023-01-23T05:28:06.332Z,87.60
2023-01-23T05:30:35.196Z,87.60
2023-01-23T05:33:02.758Z,87.60
2023-01-23T05:35:29.654Z,87.60
2023-01-23T05:37:57.112Z,87.60
2023-01-23T05:40:25.041Z,87.60
2023-01-23T05:42:52.589Z,87.60
2023-01-23T05:45:19.664Z,87.60
2023-01-23T05:47:52.263Z,87.60
2023-01-23T05:50:20.575Z,87.60
2023-01-23T05:52:47.774Z,87.60
2023-01-23T05:55:15.565Z,87.60
2023-01-23T05:57:42.614Z,87.60
2023-01-23T06:00:13.793Z,87.60
2023-01-23T06:02:40.977Z,87.60
2023-01-23T06:05:10.950Z,87.60
2023-01-23T06:07:38.476Z,87.70
2023-01-23T06:10:09.696Z,87.60
2023-01-23T06:12:37.306Z,87.60
2023-01-23T06:15:05.041Z,87.60
2023-01-23T06:17:32.244Z,87.60
2023-01-23T06:19:59.072Z,87.60
2023-01-23T06:22:27.350Z,87.70
2023-01-23T06:24:54.259Z,87.70
2023-01-23T06:27:21.707Z,87.70
2023-01-23T06:29:48.601Z,87.70
2023-01-23T06:32:16.117Z,87.70
2023-01-23T06:34:43.083Z,87.70
2023-01-23T06:37:10.160Z,87.70
2023-01-23T06:39:38.985Z,87.70
2023-01-23T06:42:09.878Z,87.70
2023-01-23T06:44:37.231Z,87.70
2023-01-23T06:47:06.668Z,87.70
2023-01-23T06:49:34.203Z,87.70
2023-01-23T06:52:01.118Z,87.70
2023-01-23T06:54:31.294Z,87.70
2023-01-23T06:56:59.522Z,87.80
2023-01-23T06:59:26.451Z,87.70
2023-01-23T07:01:53.496Z,87.80
2023-01-23T07:04:20.637Z,87.70
2023-01-23T07:06:51.253Z,87.70
2023-01-23T07:09:18.264Z,87.70
2023-01-23T07:11:45.389Z,87.60
2023-01-23T07:14:13.897Z,87.60
2023-01-23T07:16:41.231Z,87.70
2023-01-23T07:19:08.331Z,87.70
2023-01-23T07:21:35.536Z,87.70
2023-01-23T07:24:02.438Z,87.70
2023-01-23T07:26:31.353Z,87.60
2023-01-23T07:28:59.709Z,87.70
2023-01-23T07:31:28.001Z,87.70
2023-01-23T07:33:54.973Z,87.80
2023-01-23T07:36:23.826Z,87.70
2023-01-23T07:38:50.742Z,87.80
2023-01-23T07:41:17.609Z,87.80
2023-01-23T07:43:45.031Z,87.80
2023-01-23T07:46:12.402Z,87.70
2023-01-23T07:48:40.709Z,87.80
2023-01-23T07:51:07.857Z,87.80
2023-01-23T07:53:34.815Z,87.70
2023-01-23T07:56:04.686Z,87.80
2023-01-23T07:58:34.665Z,87.80
2023-01-23T08:01:09.051Z,87.80
2023-01-23T08:03:36.079Z,87.80
2023-01-23T08:06:04.816Z,87.80
2023-01-23T08:08:32.241Z,87.80
2023-01-23T08:10:59.106Z,87.80
2023-01-23T08:13:26.303Z,87.80
2023-01-23T08:15:54.397Z,87.80
2023-01-23T08:18:21.780Z,87.90
2023-01-23T08:20:53.788Z,87.80
2023-01-23T08:23:25.542Z,87.90
2023-01-23T08:25:53.607Z,87.90
2023-01-23T08:28:21.218Z,87.80
2023-01-23T08:30:48.218Z,87.80
2023-01-23T08:33:16.197Z,87.80
2023-01-23T08:36:10.916Z,87.80
2023-01-23T08:38:39.836Z,87.80
2023-01-23T08:41:14.245Z,87.80
2023-01-23T08:43:44.552Z,87.80
2023-01-23T08:46:24.653Z,87.70
2023-01-23T08:48:52.047Z,87.70
2023-01-23T08:51:18.919Z,87.80
2023-01-23T08:53:47.493Z,87.80
2023-01-23T08:56:17.061Z,87.80
2023-01-23T08:58:44.309Z,87.80
2023-01-23T09:01:12.535Z,87.80
2023-01-23T09:03:40.201Z,87.70
2023-01-23T09:06:07.832Z,87.80
2023-01-23T09:08:37.957Z,87.70
2023-01-23T09:11:10.940Z,87.70
2023-01-23T09:13:38.262Z,87.70
2023-01-23T09:16:08.399Z,87.80
2023-01-23T09:18:38.224Z,87.80
2023-01-23T09:21:10.453Z,87.80
2023-01-23T09:23:37.794Z,87.80
2023-01-23T09:26:06.927Z,87.70
2023-01-23T09:28:38.814Z,87.70
2023-01-23T09:31:08.059Z,87.70
2023-01-23T09:33:40.793Z,87.70
2023-01-23T09:36:09.794Z,87.60
2023-01-23T09:38:43.933Z,87.70
2023-01-23T09:41:18.246Z,87.70
2023-01-23T09:43:53.219Z,87.60
2023-01-23T09:46:24.828Z,87.60
2023-01-23T09:48:58.321Z,87.60
2023-01-23T09:51:37.674Z,87.60
2023-01-23T09:54:14.455Z,87.60
2023-01-23T09:56:45.076Z,87.60
2023-01-23T09:59:17.908Z,87.60
2023-01-23T10:01:44.852Z,87.50
2023-01-23T10:04:14.186Z,87.50
2023-01-23T10:07:03.773Z,87.40
2023-01-23T10:09:44.577Z,87.30
2023-01-23T10:12:24.460Z,87.40
2023-01-23T10:15:10.520Z,87.30
2023-01-23T10:17:47.897Z,87.30
2023-01-23T10:20:32.545Z,87.30
2023-01-23T10:23:11.439Z,87.30
2023-01-23T10:25:42.003Z,87.40
2023-01-23T10:28:23.961Z,87.40
2023-01-23T10:30:59.089Z,87.40
2023-01-23T10:33:36.422Z,87.40
2023-01-23T10:36:07.896Z,87.10
2023-01-23T10:38:45.783Z,87.00
2023-01-23T10:41:15.408Z,87.00
2023-01-23T10:43:44.037Z,87.00
2023-01-23T10:46:15.403Z,86.90
2023-01-23T10:48:45.579Z,86.70
2023-01-23T10:51:34.391Z,86.70
2023-01-23T10:54:06.830Z,86.70
2023-01-23T10:56:40.600Z,86.70
2023-01-23T10:59:16.123Z,86.50
2023-01-23T11:01:57.616Z,86.70
2023-01-23T11:04:30.420Z,86.50
2023-01-23T11:07:12.926Z,86.60
2023-01-23T11:09:54.015Z,86.70
2023-01-23T11:12:29.344Z,86.50
2023-01-23T11:15:12.568Z,86.40
2023-01-23T11:17:43.394Z,86.50
2023-01-23T11:20:30.259Z,86.70
2023-01-23T11:23:03.486Z,86.70
2023-01-23T11:25:32.811Z,86.70
2023-01-23T11:28:01.578Z,86.10
2023-01-23T11:30:44.461Z,86.10
2023-01-23T11:33:27.012Z,85.30
2023-01-23T11:36:02.371Z,85.10
2023-01-23T11:38:44.880Z,85.00
2023-01-23T11:41:15.214Z,85.40
2023-01-23T11:43:42.668Z,85.40
2023-01-23T11:46:30.496Z,85.40
2023-01-23T11:49:12.407Z,85.40
2023-01-23T11:51:45.906Z,85.70
2023-01-23T11:54:39.840Z,85.30
2023-01-23T11:57:16.365Z,85.30
2023-01-23T12:00:16.377Z,85.10
2023-01-23T12:02:59.961Z,85.40
2023-01-23T12:06:10.305Z,85.60
2023-01-23T12:08:53.172Z,85.70
2023-01-23T12:11:24.374Z,85.20
2023-01-23T12:14:04.787Z,85.10
2023-01-23T12:16:59.043Z,84.90
2023-01-23T12:19:39.742Z,85.10
2023-01-23T12:22:21.832Z,84.80
2023-01-23T12:25:04.217Z,84.50
2023-01-23T12:27:40.758Z,84.80
2023-01-23T12:30:32.063Z,84.50
2023-01-23T12:33:21.685Z,84.80
2023-01-23T12:35:59.532Z,84.70
2023-01-23T12:38:32.778Z,84.90
2023-01-23T12:41:12.580Z,85.00
2023-01-23T12:43:48.096Z,84.90
2023-01-23T12:46:23.316Z,85.00
2023-01-23T12:48:55.018Z,85.10
2023-01-23T12:51:27.088Z,85.00
2023-01-23T12:54:00.606Z,84.40
2023-01-23T12:56:31.426Z,84.60
2023-01-23T12:59:09.623Z,84.50
2023-01-23T13:01:49.542Z,84.60
2023-01-23T13:04:29.793Z,84.50
2023-01-23T13:07:19.397Z,84.70
2023-01-23T13:10:05.988Z,84.30
2023-01-23T13:12:33.354Z,84.40
2023-01-23T13:15:39.008Z,84.40
2023-01-23T13:18:19.231Z,84.40
2023-01-23T13:21:18.921Z,84.30
2023-01-23T13:23:46.308Z,84.30
2023-01-23T13:26:30.076Z,84.20
2023-01-23T13:29:01.532Z,84.10
2023-01-23T13:31:40.692Z,84.20
2023-01-23T13:34:36.977Z,84.10
2023-01-23T13:37:57.089Z,84.20
2023-01-23T13:40:36.780Z,84.00
2023-01-23T13:45:58.608Z,83.90
2023-01-23T14:21:02.929Z,83.60
2023-01-23T14:23:38.239Z,83.30
2023-01-23T14:26:09.199Z,83.60
2023-01-23T14:28:38.616Z,83.30
2023-01-23T14:31:08.211Z,83.50
2023-01-23T14:33:45.174Z,83.30
2023-01-23T14:36:17.213Z,83.50
2023-01-23T14:38:48.290Z,83.30
2023-01-23T14:41:15.996Z,83.30
2023-01-23T14:43:46.971Z,82.90
2023-01-23T14:46:19.501Z,82.90
2023-01-23T14:49:03.814Z,82.80
2023-01-23T14:51:32.078Z,83.10
2023-01-23T14:54:01.701Z,82.70
2023-01-23T14:56:31.980Z,83.00
2023-01-23T14:59:02.050Z,83.20
2023-01-23T15:01:29.292Z,83.20
2023-01-23T15:04:00.548Z,83.20
2023-01-23T15:06:35.560Z,83.30
2023-01-23T15:09:11.627Z,83.20
2023-01-23T15:11:38.629Z,83.30
2023-01-23T15:14:08.165Z,83.30
2023-01-23T15:16:38.013Z,83.00
2023-01-23T15:19:16.842Z,83.00
2023-01-23T15:21:43.923Z,83.10
2023-01-23T15:24:25.322Z,83.30
2023-01-23T15:27:07.661Z,83.10
2023-01-23T15:29:37.499Z,83.10
2023-01-23T15:32:18.688Z,83.10
2023-01-23T15:34:58.694Z,83.20
2023-01-23T15:37:29.641Z,83.30
2023-01-23T15:40:02.102Z,83.20
2023-01-23T15:42:34.636Z,82.90
2023-01-23T15:45:05.777Z,83.30
2023-01-23T15:47:37.007Z,83.20
2023-01-23T15:50:08.939Z,83.20
2023-01-23T15:52:46.795Z,82.70
2023-01-23T15:55:14.700Z,83.00
2023-01-23T15:57:44.391Z,82.90
2023-01-23T16:00:18.738Z,82.90
2023-01-23T16:02:55.567Z,83.00
2023-01-23T16:05:27.841Z,83.10
2023-01-23T16:08:02.751Z,83.00
2023-01-23T16:10:32.086Z,83.00
2023-01-23T16:13:25.029Z,82.90
2023-01-23T16:15:52.710Z,83.00
2023-01-23T16:18:40.056Z,83.00
